Time;durP1;ratioP1;P1;durP2;ratioP2;P2;SDS_P1;SDS_P2;PMS_P1;PMS_P2;Temp;Humidity;BMP_temperature;BMP_pressure;BME280_temperature;BME280_humidity;BME280_pressure;Samples;Min_cycle;Max_cycle;Signal;HPM_P1;HPM_P2
2021/09/11 00:00:39;;;;;;;0.50;0.50;;;18.70;99.90;;;;;;4989700;28;20657;-80
2021/09/11 00:03:04;;;;;;;0.87;0.60;;;18.70;99.90;;;;;;4980870;28;20271;-81
2021/09/11 00:05:30;;;;;;;0.47;0.47;;;18.70;99.90;;;;;;4987753;28;20204;-81
2021/09/11 00:07:55;;;;;;;0.57;0.57;;;18.70;99.90;;;;;;4998086;28;20167;-81
2021/09/11 00:10:21;;;;;;;0.27;0.27;;;18.80;99.90;;;;;;4994105;28;20175;-81
2021/09/11 00:12:47;;;;;;;0.87;0.57;;;18.80;99.90;;;;;;4989619;28;20257;-81
2021/09/11 00:15:14;;;;;;;1.20;0.70;;;18.80;99.90;;;;;;4984992;28;20267;-82
2021/09/11 00:17:42;;;;;;;0.63;0.63;;;18.80;99.90;;;;;;4991642;28;20184;-81
2021/09/11 00:20:09;;;;;;;1.20;0.63;;;18.90;99.90;;;;;;4994146;28;20184;-81
2021/09/11 00:22:35;;;;;;;0.30;0.30;;;18.90;99.90;;;;;;4982943;28;20181;-81
2021/09/11 00:25:01;;;;;;;1.13;0.40;;;18.80;99.90;;;;;;4991420;28;21177;-81
2021/09/11 00:27:26;;;;;;;0.53;0.53;;;18.90;99.90;;;;;;4988602;28;20267;-81
2021/09/11 00:29:52;;;;;;;1.67;0.70;;;18.90;99.90;;;;;;4988446;28;20266;-81
2021/09/11 00:32:17;;;;;;;0.40;0.40;;;19.00;99.90;;;;;;4984941;28;20175;-81
2021/09/11 00:34:43;;;;;;;0.43;0.40;;;19.00;99.90;;;;;;5007485;28;20194;-81
2021/09/11 00:37:09;;;;;;;0.53;0.33;;;19.00;99.90;;;;;;4992277;28;20236;-80
2021/09/11 00:39:34;;;;;;;0.30;0.30;;;19.00;99.90;;;;;;4993802;28;20187;-81
2021/09/11 00:42:00;;;;;;;0.63;0.63;;;18.90;99.90;;;;;;4984075;28;20268;-81
2021/09/11 00:44:26;;;;;;;1.13;0.57;;;18.80;99.90;;;;;;4983766;28;20693;-81
2021/09/11 00:46:52;;;;;;;0.70;0.67;;;18.80;99.90;;;;;;4988102;28;20210;-81
2021/09/11 00:49:17;;;;;;;0.47;0.47;;;18.90;99.90;;;;;;4981517;28;20315;-81
2021/09/11 00:51:44;;;;;;;0.70;0.63;;;19.00;99.90;;;;;;4992376;28;20187;-81
2021/09/11 00:54:10;;;;;;;0.53;0.53;;;19.00;99.90;;;;;;4991769;28;20204;-81
2021/09/11 00:56:36;;;;;;;0.50;0.50;;;19.20;99.90;;;;;;4989425;28;20271;-81
2021/09/11 00:59:03;;;;;;;0.43;0.43;;;19.20;99.90;;;;;;4987111;28;20180;-81
2021/09/11 01:01:29;;;;;;;0.93;0.60;;;19.20;99.90;;;;;;4985789;28;20619;-82
2021/09/11 01:03:55;;;;;;;0.40;0.40;;;19.20;99.90;;;;;;5003415;28;20223;-81
2021/09/11 01:06:22;;;;;;;0.73;0.30;;;19.20;99.90;;;;;;5010604;28;20219;-81
2021/09/11 01:08:48;;;;;;;0.20;0.20;;;19.20;99.90;;;;;;5007388;28;20214;-81
2021/09/11 01:11:14;;;;;;;0.43;0.43;;;19.20;99.90;;;;;;5010988;28;20191;-80
2021/09/11 01:13:40;;;;;;;0.90;0.67;;;19.10;99.90;;;;;;5009327;28;20183;-81
2021/09/11 01:16:07;;;;;;;0.33;0.33;;;18.80;99.90;;;;;;5006157;28;20574;-80
2021/09/11 01:18:33;;;;;;;1.03;0.70;;;18.70;99.90;;;;;;4999151;28;20202;-81
2021/09/11 01:21:00;;;;;;;0.50;0.50;;;18.50;99.90;;;;;;5003051;28;20196;-81
2021/09/11 01:23:27;;;;;;;0.27;0.27;;;18.70;99.90;;;;;;4999434;28;20191;-81
2021/09/11 01:25:53;;;;;;;0.53;0.40;;;18.60;99.90;;;;;;5000836;28;20219;-81
2021/09/11 01:28:20;;;;;;;0.73;0.73;;;18.50;99.90;;;;;;5002802;28;20190;-80
2021/09/11 01:30:46;;;;;;;0.67;0.60;;;18.50;99.90;;;;;;4995962;28;20191;-81
2021/09/11 01:33:12;;;;;;;0.43;0.43;;;18.60;99.90;;;;;;5008528;28;20194;-81
2021/09/11 01:35:38;;;;;;;0.53;0.30;;;18.50;99.90;;;;;;5005917;28;20216;-81
2021/09/11 01:38:04;;;;;;;0.40;0.40;;;18.70;99.90;;;;;;5003451;28;20184;-80
2021/09/11 01:40:30;;;;;;;0.20;0.20;;;18.80;99.90;;;;;;5000812;28;20179;-81
2021/09/11 01:42:56;;;;;;;0.30;0.30;;;18.90;99.90;;;;;;5008876;28;20195;-81
2021/09/11 01:45:22;;;;;;;0.43;0.43;;;18.80;99.90;;;;;;5006086;28;20202;-81
2021/09/11 01:47:50;;;;;;;1.50;1.00;;;18.90;99.90;;;;;;5001856;28;20181;-81
2021/09/11 01:50:18;;;;;;;0.93;0.43;;;19.00;99.90;;;;;;5002034;28;20208;-81
2021/09/11 01:52:44;;;;;;;1.80;0.90;;;19.00;99.90;;;;;;4996879;28;20614;-81
2021/09/11 01:55:12;;;;;;;0.20;0.20;;;19.00;99.90;;;;;;4993507;28;20303;-81
2021/09/11 01:57:39;;;;;;;0.67;0.67;;;19.00;99.90;;;;;;4993017;28;20184;-81
2021/09/11 02:00:27;;;;;;;0.50;0.50;;;18.90;99.90;;;;;;4989220;28;20279;-81
2021/09/11 02:02:52;;;;;;;0.40;0.27;;;18.70;99.90;;;;;;5001330;28;20666;-81
2021/09/11 02:05:18;;;;;;;0.60;0.60;;;18.60;99.90;;;;;;4998267;28;20295;-82
2021/09/11 02:07:44;;;;;;;0.63;0.63;;;18.40;99.90;;;;;;5004468;28;21445;-81
2021/09/11 02:10:11;;;;;;;0.63;0.50;;;18.30;99.90;;;;;;4992215;28;20208;-80
2021/09/11 02:12:37;;;;;;;1.63;0.50;;;18.40;99.90;;;;;;4994980;28;20546;-80
2021/09/11 02:15:03;;;;;;;0.50;0.50;;;18.50;99.90;;;;;;4993359;28;20216;-81
2021/09/11 02:17:29;;;;;;;0.57;0.57;;;18.60;99.90;;;;;;4994249;28;20170;-81
2021/09/11 02:19:54;;;;;;;0.50;0.50;;;18.60;99.90;;;;;;4994507;28;20530;-81
2021/09/11 02:22:20;;;;;;;0.73;0.73;;;18.70;99.90;;;;;;4998214;28;20184;-81
2021/09/11 02:24:45;;;;;;;0.70;0.70;;;18.70;99.90;;;;;;4993083;28;20215;-81
2021/09/11 02:27:11;;;;;;;1.20;0.40;;;18.70;99.90;;;;;;4992960;28;20206;-81
2021/09/11 02:29:37;;;;;;;0.73;0.63;;;18.80;99.90;;;;;;4997310;28;20176;-81
2021/09/11 02:32:04;;;;;;;0.53;0.53;;;18.80;99.90;;;;;;4990091;28;20195;-81
2021/09/11 02:34:32;;;;;;;1.20;0.90;;;18.80;99.90;;;;;;4998488;28;20212;-81
2021/09/11 02:36:58;;;;;;;0.50;0.50;;;18.70;99.90;;;;;;4997969;28;20268;-80
2021/09/11 02:39:24;;;;;;;0.67;0.43;;;18.60;99.90;;;;;;4996525;28;20188;-81
2021/09/11 02:41:50;;;;;;;0.40;0.40;;;18.70;99.90;;;;;;4995377;28;20199;-81
2021/09/11 02:44:15;;;;;;;1.30;0.40;;;18.60;99.90;;;;;;4995342;28;20296;-81
2021/09/11 02:46:41;;;;;;;0.33;0.33;;;18.60;99.90;;;;;;4992902;28;20807;-81
2021/09/11 02:49:06;;;;;;;0.50;0.50;;;18.50;99.90;;;;;;4995197;28;20185;-81
2021/09/11 02:51:33;;;;;;;0.20;0.20;;;18.50;99.90;;;;;;4988873;28;20217;-81
2021/09/11 02:53:59;;;;;;;0.77;0.70;;;18.50;99.90;;;;;;4996579;28;20234;-81
2021/09/11 02:56:24;;;;;;;0.47;0.27;;;18.40;99.90;;;;;;4992300;28;20275;-81
2021/09/11 02:58:50;;;;;;;1.30;0.80;;;18.40;99.90;;;;;;4996545;28;20208;-80
2021/09/11 03:01:15;;;;;;;0.20;0.20;;;18.40;99.90;;;;;;4986648;28;20180;-81
2021/09/11 03:03:41;;;;;;;0.60;0.60;;;18.40;99.90;;;;;;4996208;28;20190;-80
2021/09/11 03:06:07;;;;;;;0.53;0.53;;;18.50;99.90;;;;;;4983812;28;20298;-80
2021/09/11 03:08:32;;;;;;;0.63;0.63;;;18.60;99.90;;;;;;4989007;28;20190;-80
2021/09/11 03:10:58;;;;;;;1.03;0.70;;;18.70;99.90;;;;;;4986277;28;20182;-80
2021/09/11 03:13:24;;;;;;;0.63;0.63;;;18.80;99.90;;;;;;4994113;28;20180;-80
2021/09/11 03:15:50;;;;;;;0.73;0.50;;;18.80;99.90;;;;;;4988482;28;20239;-80
2021/09/11 03:18:15;;;;;;;1.87;0.73;;;18.80;99.90;;;;;;4988807;28;20183;-80
2021/09/11 03:20:46;;;;;;;0.27;0.27;;;18.70;99.90;;;;;;4993208;28;20270;-80
2021/09/11 03:23:13;;;;;;;0.40;0.40;;;18.80;99.90;;;;;;4987331;28;20216;-80
2021/09/11 03:25:38;;;;;;;0.33;0.33;;;18.80;99.90;;;;;;4990727;28;20274;-80
2021/09/11 03:28:04;;;;;;;0.50;0.30;;;18.80;99.90;;;;;;4982942;28;20674;-80
2021/09/11 03:30:29;;;;;;;0.50;0.40;;;18.80;99.90;;;;;;4989668;28;20233;-80
2021/09/11 03:32:55;;;;;;;0.93;0.80;;;18.80;99.90;;;;;;4991588;28;20235;-80
2021/09/11 03:35:21;;;;;;;0.53;0.53;;;18.80;99.90;;;;;;4991091;28;20680;-80
2021/09/11 03:37:47;;;;;;;0.47;0.47;;;18.90;99.90;;;;;;4991158;28;20209;-80
2021/09/11 03:40:12;;;;;;;0.70;0.70;;;18.90;99.90;;;;;;4986802;28;20192;-80
2021/09/11 03:42:38;;;;;;;2.00;0.80;;;19.00;99.90;;;;;;4985477;28;20224;-79
2021/09/11 03:45:04;;;;;;;1.00;0.93;;;19.10;99.90;;;;;;4982262;28;20240;-80
2021/09/11 03:47:30;;;;;;;0.60;0.50;;;19.10;99.90;;;;;;4986839;28;20212;-80
2021/09/11 03:49:55;;;;;;;0.60;0.60;;;19.10;99.90;;;;;;5006855;28;20203;-80
2021/09/11 03:52:21;;;;;;;0.63;0.60;;;19.10;99.90;;;;;;4995429;28;20196;-80
2021/09/11 03:54:46;;;;;;;0.57;0.57;;;19.20;99.90;;;;;;4994814;28;20247;-81
2021/09/11 03:57:12;;;;;;;0.53;0.40;;;19.20;99.90;;;;;;4989205;28;20185;-80
2021/09/11 03:59:37;;;;;;;0.63;0.63;;;19.20;99.90;;;;;;4988002;28;20176;-80
2021/09/11 04:02:03;;;;;;;1.50;0.80;;;19.30;99.90;;;;;;4996152;28;20569;-80
2021/09/11 04:04:29;;;;;;;0.50;0.43;;;19.30;99.90;;;;;;4988509;28;20233;-80
2021/09/11 04:06:54;;;;;;;0.20;0.20;;;19.30;99.90;;;;;;4988150;28;20203;-80
2021/09/11 04:09:20;;;;;;;0.63;0.63;;;19.40;99.90;;;;;;4989893;28;20218;-80
2021/09/11 04:11:45;;;;;;;0.97;0.57;;;19.40;99.90;;;;;;4986970;28;20188;-80
2021/09/11 04:14:11;;;;;;;0.63;0.63;;;19.50;99.90;;;;;;4991912;28;20258;-80
2021/09/11 04:16:37;;;;;;;0.77;0.70;;;19.40;99.90;;;;;;4993002;28;20197;-80
2021/09/11 04:19:03;;;;;;;0.53;0.53;;;19.50;99.90;;;;;;4991043;28;20669;-80
2021/09/11 04:21:29;;;;;;;0.87;0.87;;;19.40;99.90;;;;;;4993241;28;20270;-80
2021/09/11 04:23:54;;;;;;;0.70;0.70;;;19.50;99.90;;;;;;4991532;28;20243;-80
2021/09/11 04:26:20;;;;;;;1.03;0.60;;;19.50;99.90;;;;;;4983464;28;20295;-80
2021/09/11 04:28:45;;;;;;;0.93;0.93;;;19.50;99.90;;;;;;4990432;28;20185;-80
2021/09/11 04:31:12;;;;;;;0.27;0.27;;;19.50;99.90;;;;;;4985548;28;20208;-80
2021/09/11 04:33:37;;;;;;;0.53;0.53;;;19.50;99.90;;;;;;4992467;28;20232;-80
2021/09/11 04:36:03;;;;;;;0.73;0.63;;;19.50;99.90;;;;;;4992454;28;20194;-80
2021/09/11 04:38:29;;;;;;;1.10;0.70;;;19.40;99.90;;;;;;5002614;28;20699;-80
2021/09/11 04:40:54;;;;;;;0.40;0.40;;;19.30;99.90;;;;;;4990022;28;20241;-80
2021/09/11 04:43:20;;;;;;;0.70;0.67;;;19.30;99.90;;;;;;4986486;28;20609;-81
2021/09/11 04:45:45;;;;;;;1.73;0.60;;;19.30;99.90;;;;;;4992930;28;20203;-81
2021/09/11 04:48:11;;;;;;;0.47;0.40;;;19.20;99.90;;;;;;4985628;28;20218;-81
2021/09/11 04:50:37;;;;;;;0.57;0.50;;;19.00;99.90;;;;;;5005909;28;20567;-81
2021/09/11 04:53:03;;;;;;;1.10;0.73;;;19.10;99.90;;;;;;4990760;28;20214;-82
2021/09/11 04:55:29;;;;;;;0.40;0.40;;;19.10;99.90;;;;;;4991659;28;20204;-81
2021/09/11 04:57:54;;;;;;;0.83;0.80;;;19.00;99.90;;;;;;4989454;28;20590;-80
2021/09/11 05:00:20;;;;;;;0.83;0.80;;;19.10;99.90;;;;;;4986523;28;20524;-80
2021/09/11 05:02:45;;;;;;;0.40;0.40;;;19.10;99.90;;;;;;4995028;28;20207;-80
2021/09/11 05:05:11;;;;;;;0.50;0.50;;;19.00;99.90;;;;;;4987303;28;20582;-80
2021/09/11 05:07:37;;;;;;;0.20;0.20;;;19.10;99.90;;;;;;4988241;28;20189;-80
2021/09/11 05:10:03;;;;;;;1.03;0.53;;;19.10;99.90;;;;;;4989539;28;20195;-82
2021/09/11 05:12:29;;;;;;;0.70;0.60;;;18.80;99.90;;;;;;4986508;28;20244;-81
2021/09/11 05:14:54;;;;;;;0.83;0.80;;;18.70;99.90;;;;;;4995144;28;20223;-82
2021/09/11 05:17:20;;;;;;;1.93;0.90;;;18.60;99.90;;;;;;4992194;28;20180;-82
2021/09/11 05:19:45;;;;;;;0.63;0.60;;;18.40;99.90;;;;;;4989545;28;20176;-82
2021/09/11 05:22:11;;;;;;;0.90;0.77;;;18.60;99.90;;;;;;4992159;28;20271;-81
2021/09/11 05:24:36;;;;;;;1.03;0.63;;;18.60;99.90;;;;;;4992002;28;20274;-81
2021/09/11 05:27:02;;;;;;;0.87;0.80;;;18.60;99.90;;;;;;5002376;28;20212;-81
2021/09/11 05:29:28;;;;;;;0.80;0.80;;;18.50;99.90;;;;;;5000469;28;20176;-81
2021/09/11 05:31:53;;;;;;;0.57;0.57;;;18.50;99.90;;;;;;4994387;28;20176;-81
2021/09/11 05:34:19;;;;;;;1.17;1.07;;;18.40;99.90;;;;;;4998939;28;20228;-81
2021/09/11 05:36:45;;;;;;;0.83;0.83;;;18.40;99.90;;;;;;4995307;28;20186;-81
2021/09/11 05:39:10;;;;;;;1.17;1.07;;;18.30;99.90;;;;;;4983672;28;20271;-81
2021/09/11 05:41:36;;;;;;;0.57;0.57;;;18.30;99.90;;;;;;4989377;28;20670;-81
2021/09/11 05:44:02;;;;;;;0.93;0.93;;;18.50;99.90;;;;;;4996258;28;20224;-81
2021/09/11 05:46:27;;;;;;;0.70;0.70;;;18.60;99.90;;;;;;4988195;28;20200;-81
2021/09/11 05:48:53;;;;;;;0.63;0.60;;;18.70;99.90;;;;;;4996286;28;20327;-81
2021/09/11 05:51:19;;;;;;;1.07;0.63;;;18.70;99.90;;;;;;4987612;28;20176;-82
2021/09/11 05:53:45;;;;;;;0.83;0.53;;;18.80;99.90;;;;;;4990497;28;20616;-83
2021/09/11 05:56:11;;;;;;;1.13;0.53;;;19.00;99.90;;;;;;4985472;28;20184;-81
2021/09/11 05:58:37;;;;;;;0.57;0.50;;;19.20;99.90;;;;;;5007033;28;20266;-81
2021/09/11 06:01:02;;;;;;;0.83;0.50;;;19.30;99.90;;;;;;4994753;28;20241;-81
2021/09/11 06:03:28;;;;;;;0.47;0.30;;;19.40;99.90;;;;;;4991739;28;20278;-81
2021/09/11 06:05:55;;;;;;;0.47;0.47;;;19.50;99.90;;;;;;4994322;28;20212;-81
2021/09/11 06:08:20;;;;;;;0.40;0.40;;;19.50;99.90;;;;;;4993441;28;20188;-81
2021/09/11 06:10:46;;;;;;;1.10;0.73;;;19.60;99.90;;;;;;4991530;28;20596;-82
2021/09/11 06:13:11;;;;;;;0.30;0.30;;;19.50;99.90;;;;;;4991682;28;20625;-81
2021/09/11 06:15:37;;;;;;;0.60;0.47;;;19.60;99.90;;;;;;4992260;28;20294;-81
2021/09/11 06:18:03;;;;;;;0.60;0.60;;;19.70;99.90;;;;;;4991066;28;20189;-81
2021/09/11 06:20:28;;;;;;;0.63;0.63;;;19.70;99.90;;;;;;4994930;28;20274;-81
2021/09/11 06:22:54;;;;;;;0.40;0.40;;;19.80;99.90;;;;;;4985661;28;20203;-81
2021/09/11 06:25:19;;;;;;;1.37;0.60;;;19.80;99.90;;;;;;4992258;28;20582;-81
2021/09/11 06:27:45;;;;;;;0.90;0.60;;;19.70;99.90;;;;;;4997462;28;20183;-81
2021/09/11 06:30:12;;;;;;;2.20;0.60;;;19.50;99.90;;;;;;4985223;28;20661;-81
2021/09/11 06:32:38;;;;;;;2.03;0.63;;;19.50;99.90;;;;;;4987367;28;20649;-81
2021/09/11 06:35:05;;;;;;;0.60;0.60;;;19.50;99.90;;;;;;4982426;28;20211;-81
2021/09/11 06:37:31;;;;;;;0.70;0.70;;;19.70;99.90;;;;;;4992763;28;20215;-80
2021/09/11 06:39:56;;;;;;;0.90;0.53;;;19.70;99.90;;;;;;4991002;28;20220;-81
2021/09/11 06:42:22;;;;;;;0.57;0.37;;;19.90;99.90;;;;;;4992910;28;20780;-80
2021/09/11 06:44:48;;;;;;;0.80;0.60;;;19.90;99.90;;;;;;4989314;28;20239;-80
2021/09/11 06:47:14;;;;;;;0.40;0.40;;;19.90;99.90;;;;;;4993835;28;20175;-80
2021/09/11 06:49:40;;;;;;;1.03;0.90;;;19.70;99.90;;;;;;4996883;28;20233;-80
2021/09/11 06:52:05;;;;;;;0.50;0.50;;;19.70;99.90;;;;;;5002326;28;20184;-80
2021/09/11 06:54:31;;;;;;;0.70;0.60;;;19.90;99.90;;;;;;4989591;28;20212;-80
2021/09/11 06:56:57;;;;;;;0.40;0.40;;;20.00;99.90;;;;;;4991076;28;20180;-80
2021/09/11 06:59:22;;;;;;;3.33;1.57;;;20.00;99.90;;;;;;4995872;28;20192;-81
2021/09/11 07:01:48;;;;;;;0.90;0.90;;;20.10;99.90;;;;;;4996649;28;20195;-81
2021/09/11 07:04:14;;;;;;;1.30;1.20;;;20.20;99.90;;;;;;4992558;28;20579;-81
2021/09/11 07:06:39;;;;;;;0.70;0.50;;;20.30;99.90;;;;;;4991543;28;20712;-81
2021/09/11 07:09:05;;;;;;;0.33;0.33;;;20.40;99.90;;;;;;4984868;28;20625;-81
2021/09/11 07:11:31;;;;;;;1.63;1.20;;;20.50;99.90;;;;;;5019411;28;20607;-81
2021/09/11 07:13:56;;;;;;;1.30;1.20;;;20.60;99.90;;;;;;4990377;28;20222;-81
2021/09/11 07:16:22;;;;;;;0.93;0.90;;;20.70;99.90;;;;;;4996001;28;20319;-81
2021/09/11 07:18:47;;;;;;;2.80;0.70;;;20.80;99.90;;;;;;4988374;28;20183;-81
2021/09/11 07:21:13;;;;;;;0.67;0.67;;;20.80;99.90;;;;;;4990591;28;20195;-81
2021/09/11 07:23:39;;;;;;;0.83;0.80;;;20.90;99.90;;;;;;4988046;28;20626;-81
2021/09/11 07:26:04;;;;;;;0.60;0.60;;;20.90;99.90;;;;;;4988564;28;20207;-81
2021/09/11 07:28:30;;;;;;;0.73;0.73;;;21.00;99.90;;;;;;4994835;28;20197;-81
2021/09/11 07:30:55;;;;;;;0.77;0.73;;;21.10;99.90;;;;;;4995186;28;20176;-81
2021/09/11 07:33:21;;;;;;;0.87;0.80;;;21.10;99.90;;;;;;4996900;28;20183;-81
2021/09/11 07:35:47;;;;;;;1.13;0.30;;;21.00;99.90;;;;;;4984738;28;20201;-81
2021/09/11 07:38:14;;;;;;;1.13;0.73;;;21.10;99.90;;;;;;4990944;28;20218;-81
2021/09/11 07:40:41;;;;;;;0.70;0.70;;;21.40;99.90;;;;;;4993618;28;20194;-81
2021/09/11 07:43:09;;;;;;;0.53;0.53;;;21.40;99.90;;;;;;4985268;28;20247;-81
2021/09/11 07:45:38;;;;;;;1.57;1.20;;;21.30;99.90;;;;;;4987647;28;20227;-81
2021/09/11 07:48:04;;;;;;;1.43;0.70;;;21.20;99.90;;;;;;4994087;28;20192;-82
2021/09/11 07:50:31;;;;;;;1.23;1.13;;;21.10;99.90;;;;;;4996292;28;20187;-82
2021/09/11 07:52:56;;;;;;;0.53;0.53;;;20.90;99.90;;;;;;4993828;28;20215;-81
2021/09/11 07:55:22;;;;;;;1.00;0.67;;;20.80;99.90;;;;;;4990775;28;20211;-81
2021/09/11 07:57:48;;;;;;;0.90;0.90;;;21.00;99.90;;;;;;5001170;28;20656;-81
2021/09/11 08:00:15;;;;;;;0.70;0.50;;;21.20;99.90;;;;;;4997562;28;20203;-81
2021/09/11 08:02:40;;;;;;;1.17;0.80;;;21.50;99.90;;;;;;4996590;28;20228;-82
2021/09/11 08:05:06;;;;;;;0.47;0.47;;;22.00;99.90;;;;;;4987749;28;20242;-80
2021/09/11 08:07:32;;;;;;;0.93;0.83;;;21.70;99.90;;;;;;4988858;28;20220;-80
2021/09/11 08:09:58;;;;;;;1.03;1.00;;;21.40;99.90;;;;;;4988414;28;20199;-80
2021/09/11 08:12:23;;;;;;;1.00;0.40;;;22.10;99.90;;;;;;4993398;28;20180;-80
2021/09/11 08:14:49;;;;;;;0.90;0.90;;;22.70;99.90;;;;;;4987221;28;20267;-81
2021/09/11 08:17:14;;;;;;;2.97;1.07;;;22.70;99.90;;;;;;4981260;28;20191;-80
2021/09/11 08:19:40;;;;;;;1.63;0.90;;;22.60;99.90;;;;;;5010250;28;20195;-81
2021/09/11 08:22:06;;;;;;;0.57;0.57;;;22.70;99.90;;;;;;4991729;28;20176;-80
2021/09/11 08:24:31;;;;;;;0.67;0.60;;;22.80;99.90;;;;;;4996209;28;20772;-81
2021/09/11 08:26:57;;;;;;;0.60;0.60;;;22.80;99.90;;;;;;4989518;28;20207;-80
2021/09/11 08:29:22;;;;;;;0.43;0.37;;;22.90;99.90;;;;;;4995521;28;20191;-80
2021/09/11 08:31:48;;;;;;;4.10;0.90;;;23.00;99.90;;;;;;4995521;28;20184;-81
2021/09/11 08:34:14;;;;;;;1.60;0.80;;;23.40;99.90;;;;;;4992914;28;20204;-81
2021/09/11 08:36:39;;;;;;;1.00;0.93;;;23.70;99.90;;;;;;4993647;28;20704;-81
2021/09/11 08:39:05;;;;;;;0.77;0.77;;;23.80;99.90;;;;;;4994483;28;20194;-81
2021/09/11 08:41:31;;;;;;;0.60;0.60;;;23.60;99.90;;;;;;4986004;28;20251;-81
2021/09/11 08:43:59;;;;;;;0.50;0.50;;;23.40;99.90;;;;;;4994568;28;20200;-81
2021/09/11 08:46:27;;;;;;;1.47;0.93;;;23.30;99.90;;;;;;4998407;28;20235;-81
2021/09/11 08:48:53;;;;;;;0.90;0.87;;;23.20;99.90;;;;;;4996915;28;20601;-82
2021/09/11 08:51:19;;;;;;;1.17;0.60;;;23.30;99.90;;;;;;4989493;28;20181;-82
2021/09/11 08:53:45;;;;;;;1.27;0.83;;;23.30;99.90;;;;;;4995911;28;20187;-82
2021/09/11 08:56:11;;;;;;;1.03;0.73;;;23.30;99.90;;;;;;4994622;28;20193;-80
2021/09/11 08:58:37;;;;;;;0.70;0.70;;;23.20;99.90;;;;;;4993696;28;20246;-81
2021/09/11 09:01:03;;;;;;;1.23;0.63;;;23.20;99.90;;;;;;4995106;28;20235;-81
2021/09/11 09:03:35;;;;;;;0.53;0.37;;;23.90;99.90;;;;;;4989669;28;20188;-81
2021/09/11 09:06:27;;;;;;;1.33;0.73;;;24.40;99.90;;;;;;4989177;28;20612;-82
2021/09/11 09:08:57;;;;;;;0.53;0.53;;;24.50;99.90;;;;;;4987513;28;20178;-80
2021/09/11 09:11:31;;;;;;;0.53;0.53;;;24.60;99.90;;;;;;4989211;28;20214;-80
2021/09/11 09:14:07;;;;;;;0.73;0.40;;;24.80;99.90;;;;;;4993883;28;20212;-81
2021/09/11 09:16:36;;;;;;;0.90;0.67;;;25.20;99.90;;;;;;4991469;28;20214;-80
2021/09/11 09:19:16;;;;;;;0.47;0.47;;;25.50;99.90;;;;;;5013140;28;20188;-81
2021/09/11 09:21:43;;;;;;;0.87;0.47;;;25.80;99.90;;;;;;4997645;28;20188;-80
2021/09/11 09:24:11;;;;;;;1.37;1.13;;;25.90;99.90;;;;;;4996348;28;20249;-82
2021/09/11 09:26:58;;;;;;;0.87;0.70;;;26.20;99.90;;;;;;4992578;28;20703;-82
2021/09/11 09:29:24;;;;;;;0.53;0.50;;;26.10;99.90;;;;;;4987923;28;20180;-81
2021/09/11 09:31:54;;;;;;;0.47;0.47;;;26.40;99.90;;;;;;4995012;28;20660;-82
2021/09/11 09:34:30;;;;;;;0.53;0.53;;;26.60;99.90;;;;;;4995859;28;20400;-81
2021/09/11 09:36:57;;;;;;;0.63;0.63;;;26.80;99.90;;;;;;5002590;28;20272;-82
2021/09/11 09:39:23;;;;;;;0.43;0.43;;;26.80;99.90;;;;;;5003251;28;20266;-80
2021/09/11 09:41:52;;;;;;;0.37;0.37;;;26.70;99.90;;;;;;4997137;28;20216;-81
2021/09/11 09:44:20;;;;;;;0.60;0.50;;;26.80;99.90;;;;;;4990033;28;20257;-81
2021/09/11 09:46:49;;;;;;;0.40;0.40;;;26.60;99.90;;;;;;4991576;28;20705;-81
2021/09/11 09:49:23;;;;;;;0.47;0.47;;;26.50;99.90;;;;;;4999132;28;20637;-81
2021/09/11 09:51:49;;;;;;;0.67;0.60;;;26.60;99.90;;;;;;4996158;28;20309;-81
2021/09/11 09:54:18;;;;;;;0.77;0.77;;;26.50;99.90;;;;;;4990994;28;20197;-82
2021/09/11 09:56:44;;;;;;;0.63;0.63;;;26.80;99.90;;;;;;4995870;28;20190;-82
2021/09/11 09:59:10;;;;;;;1.10;0.70;;;26.70;99.90;;;;;;4995123;28;20168;-81
2021/09/11 10:01:37;;;;;;;0.50;0.50;;;27.00;99.90;;;;;;4996614;28;20191;-81
2021/09/11 10:04:18;;;;;;;0.53;0.53;;;27.70;99.90;;;;;;4994501;28;20294;-81
2021/09/11 10:06:49;;;;;;;0.30;0.30;;;27.70;99.90;;;;;;4996642;28;20294;-82
2021/09/11 10:09:15;;;;;;;0.40;0.40;;;28.00;99.90;;;;;;4992599;28;20210;-82
2021/09/11 10:11:49;;;;;;;0.60;0.60;;;28.10;99.90;;;;;;4995775;28;20672;-82
2021/09/11 10:14:16;;;;;;;0.40;0.40;;;27.90;99.90;;;;;;4997276;28;20211;-82
2021/09/11 10:16:43;;;;;;;1.10;0.53;;;27.40;99.90;;;;;;4988996;28;20604;-82
2021/09/11 10:19:19;;;;;;;0.43;0.43;;;27.00;99.90;;;;;;4986979;28;20206;-82
2021/09/11 10:21:50;;;;;;;0.50;0.50;;;26.60;99.90;;;;;;4996895;28;20183;-82
2021/09/11 10:24:21;;;;;;;0.33;0.33;;;26.40;99.90;;;;;;5002727;28;20203;-82
2021/09/11 10:26:47;;;;;;;0.37;0.37;;;26.30;99.90;;;;;;4993021;28;20188;-82
2021/09/11 10:29:32;;;;;;;1.37;0.73;;;26.00;99.90;;;;;;4990799;28;20278;-82
2021/09/11 10:32:00;;;;;;;0.70;0.70;;;25.80;99.90;;;;;;4993514;28;20173;-82
2021/09/11 10:35:00;;;;;;;1.00;1.00;;;25.60;99.90;;;;;;5009460;28;20208;-81
2021/09/11 10:37:39;;;;;;;0.40;0.40;;;25.10;99.90;;;;;;4995281;28;20188;-82
2021/09/11 10:40:22;;;;;;;0.77;0.77;;;23.20;99.90;;;;;;5007933;23;20607;-86
2021/09/11 10:43:08;;;;;;;1.00;0.60;;;22.50;99.90;;;;;;4974112;28;20180;-85
2021/09/11 10:45:37;;;;;;;1.00;0.97;;;21.60;99.90;;;;;;4968038;28;20684;-85
2021/09/11 10:48:26;;;;;;;0.57;0.57;;;21.40;99.90;;;;;;4990820;28;20187;-84
2021/09/11 10:50:52;;;;;;;2.53;1.07;;;21.30;99.90;;;;;;4963563;28;20201;-86
2021/09/11 10:53:20;;;;;;;0.43;0.43;;;20.90;99.90;;;;;;4951378;28;20241;-85
2021/09/11 10:55:47;;;;;;;1.10;1.10;;;21.00;99.90;;;;;;4948221;28;20728;-85
2021/09/11 10:58:26;;;;;;;0.33;0.33;;;21.10;99.90;;;;;;4948136;28;20185;-85
2021/09/11 11:01:00;;;;;;;1.17;0.67;;;20.80;99.90;;;;;;4953676;28;20204;-85
2021/09/11 11:03:26;;;;;;;1.87;0.50;;;20.40;99.90;;;;;;4971445;28;22185;-85
2021/09/11 11:06:02;;;;;;;0.20;0.20;;;20.20;99.90;;;;;;4951319;28;20212;-85
2021/09/11 11:08:29;;;;;;;0.33;0.33;;;20.40;99.90;;;;;;4971355;28;20218;-85
2021/09/11 11:10:55;;;;;;;0.37;0.30;;;20.70;99.90;;;;;;4958089;28;20207;-85
2021/09/11 11:13:22;;;;;;;0.87;0.87;;;20.80;99.90;;;;;;4950335;28;20332;-85
2021/09/11 11:15:55;;;;;;;0.80;0.73;;;20.90;99.90;;;;;;4951183;28;20188;-86
2021/09/11 11:18:21;;;;;;;0.20;0.20;;;21.30;99.90;;;;;;4958811;28;20188;-85
2021/09/11 11:20:47;;;;;;;0.23;0.23;;;21.70;99.90;;;;;;4953173;28;20227;-85
2021/09/11 11:23:13;;;;;;;0.60;0.60;;;22.20;99.90;;;;;;4953498;28;20192;-85
2021/09/11 11:25:41;;;;;;;0.97;0.87;;;22.60;99.90;;;;;;4968780;28;20250;-86
2021/09/11 11:28:09;;;;;;;0.40;0.40;;;23.00;99.90;;;;;;4953399;28;20803;-85
2021/09/11 11:30:37;;;;;;;0.30;0.30;;;23.10;99.90;;;;;;4955120;28;20205;-85
2021/09/11 11:33:05;;;;;;;0.20;0.20;;;23.20;99.90;;;;;;4950233;28;20601;-85
2021/09/11 11:35:33;;;;;;;0.50;0.50;;;23.60;99.90;;;;;;4942751;29;20285;-85
2021/09/11 11:37:59;;;;;;;4.97;1.20;;;23.20;99.90;;;;;;4941572;28;20276;-85
2021/09/11 11:40:26;;;;;;;0.93;0.70;;;22.80;99.90;;;;;;4948717;29;20372;-85
2021/09/11 11:42:52;;;;;;;0.40;0.40;;;22.50;99.90;;;;;;4952203;28;20203;-85
2021/09/11 11:45:23;;;;;;;0.50;0.47;;;23.00;99.90;;;;;;4963074;28;20208;-85
2021/09/11 11:48:06;;;;;;;0.53;0.50;;;22.60;99.90;;;;;;4971109;28;20547;-85
2021/09/11 11:50:34;;;;;;;2.17;1.00;;;22.90;99.90;;;;;;4971596;28;20247;-86
2021/09/11 11:53:14;;;;;;;0.63;0.63;;;23.00;99.90;;;;;;4971277;28;20208;-85
2021/09/11 11:55:43;;;;;;;0.40;0.40;;;23.10;99.90;;;;;;4956328;28;20188;-86
2021/09/11 11:58:14;;;;;;;0.40;0.40;;;23.30;99.90;;;;;;4960055;28;20247;-86
2021/09/11 12:00:40;;;;;;;1.20;0.60;;;23.60;99.90;;;;;;4975210;28;20204;-86
2021/09/11 12:03:06;;;;;;;0.50;0.50;;;23.50;99.90;;;;;;4970175;28;20240;-85
2021/09/11 12:05:31;;;;;;;0.27;0.27;;;23.20;99.90;;;;;;4973365;28;20204;-85
2021/09/11 12:07:59;;;;;;;0.60;0.43;;;23.60;99.90;;;;;;4964423;28;20209;-85
2021/09/11 12:10:30;;;;;;;0.37;0.37;;;24.10;99.90;;;;;;4972132;28;20204;-85
2021/09/11 12:13:08;;;;;;;0.20;0.20;;;24.60;99.90;;;;;;4967229;28;20180;-85
2021/09/11 12:15:35;;;;;;;0.17;0.17;;;25.20;99.90;;;;;;4973532;28;20226;-85
2021/09/11 12:18:12;;;;;;;0.30;0.30;;;25.50;99.90;;;;;;4949543;28;20204;-84
2021/09/11 12:20:45;;;;;;;0.30;0.30;;;25.30;99.90;;;;;;4975291;28;20686;-84
2021/09/11 12:23:21;;;;;;;0.47;0.47;;;25.70;99.90;;;;;;4968550;28;21060;-84
2021/09/11 12:25:52;;;;;;;0.13;0.13;;;26.10;99.90;;;;;;4963407;28;20209;-84
2021/09/11 12:28:33;;;;;;;0.30;0.30;;;26.30;99.90;;;;;;4972159;28;20185;-84
2021/09/11 12:30:59;;;;;;;0.20;0.20;;;26.10;99.90;;;;;;4945707;28;20233;-84
2021/09/11 12:33:27;;;;;;;0.30;0.30;;;26.50;99.90;;;;;;4968340;28;20213;-85
2021/09/11 12:35:53;;;;;;;0.33;0.33;;;26.60;99.90;;;;;;4954849;28;20525;-85
2021/09/11 12:38:19;;;;;;;0.20;0.20;;;26.40;99.90;;;;;;4968190;28;20235;-85
2021/09/11 12:40:45;;;;;;;0.20;0.20;;;26.20;99.90;;;;;;4965773;28;20237;-85
2021/09/11 12:43:11;;;;;;;0.37;0.37;;;25.90;99.90;;;;;;4960820;28;20626;-85
2021/09/11 12:45:40;;;;;;;0.30;0.30;;;25.80;99.90;;;;;;4945464;28;20208;-85
2021/09/11 12:48:07;;;;;;;0.20;0.20;;;26.50;99.90;;;;;;4974158;28;20275;-85